sensor_id;sensor_type;location;lat;lon;timestamp;pressure;altitude;pressure_sealevel;temperature;humidity
37764;BME280;23602;51.084;7.090;2023-04-27T00:00:39;100422.41;;;4.22;100.00
37764;BME280;23602;51.084;7.090;2023-04-27T00:03:05;100425.88;;;4.22;100.00
37764;BME280;23602;51.084;7.090;2023-04-27T00:05:37;100426.72;;;4.23;100.00
37764;BME280;23602;51.084;7.090;2023-04-27T00:08:05;100430.72;;;4.19;100.00
37764;BME280;23602;51.084;7.090;2023-04-27T00:10:31;100429.84;;;4.10;100.00
37764;BME280;23602;51.084;7.090;2023-04-27T00:12:57;100428.53;;;4.14;100.00
37764;BME280;23602;51.084;7.090;2023-04-27T00:15:22;100434.00;;;4.13;100.00
37764;BME280;23602;51.084;7.090;2023-04-27T00:17:48;100428.88;;;4.11;100.00
37764;BME280;23602;51.084;7.090;2023-04-27T00:20:14;100430.03;;;4.09;100.00
37764;BME280;23602;51.084;7.090;2023-04-27T00:22:40;100434.16;;;4.03;100.00
37764;BME280;23602;51.084;7.090;2023-04-27T00:25:05;100435.13;;;4.02;100.00
37764;BME280;23602;51.084;7.090;2023-04-27T00:27:31;100429.31;;;3.99;100.00
37764;BME280;23602;51.084;7.090;2023-04-27T00:29:56;100436.25;;;3.92;100.00
37764;BME280;23602;51.084;7.090;2023-04-27T00:32:22;100435.63;;;3.98;100.00
37764;BME280;23602;51.084;7.090;2023-04-27T00:34:47;100439.91;;;3.91;100.00
37764;BME280;23602;51.084;7.090;2023-04-27T00:37:13;100447.72;;;3.92;100.00
37764;BME280;23602;51.084;7.090;2023-04-27T00:39:38;100441.41;;;3.93;100.00
37764;BME280;23602;51.084;7.090;2023-04-27T00:42:03;100445.38;;;3.89;100.00
37764;BME280;23602;51.084;7.090;2023-04-27T00:44:29;100445.59;;;3.96;100.00
37764;BME280;23602;51.084;7.090;2023-04-27T00:46:55;100446.44;;;3.96;100.00
37764;BME280;23602;51.084;7.090;2023-04-27T00:49:22;100448.75;;;3.99;100.00
37764;BME280;23602;51.084;7.090;2023-04-27T00:51:47;100452.75;;;4.03;100.00
37764;BME280;23602;51.084;7.090;2023-04-27T00:54:18;100452.78;;;4.11;100.00
37764;BME280;23602;51.084;7.090;2023-04-27T00:56:44;100457.09;;;4.12;100.00
37764;BME280;23602;51.084;7.090;2023-04-27T00:59:09;100456.47;;;4.18;100.00
37764;BME280;23602;51.084;7.090;2023-04-27T01:01:35;100447.03;;;4.24;100.00
37764;BME280;23602;51.084;7.090;2023-04-27T01:04:00;100452.03;;;4.27;100.00
37764;BME280;23602;51.084;7.090;2023-04-27T01:06:26;100455.84;;;4.24;100.00
37764;BME280;23602;51.084;7.090;2023-04-27T01:08:53;100455.84;;;4.24;100.00
37764;BME280;23602;51.084;7.090;2023-04-27T01:11:19;100454.34;;;4.22;100.00
37764;BME280;23602;51.084;7.090;2023-04-27T01:13:45;100451.69;;;4.22;100.00
37764;BME280;23602;51.084;7.090;2023-04-27T01:16:11;100448.50;;;4.18;100.00
37764;BME280;23602;51.084;7.090;2023-04-27T01:18:36;100442.50;;;4.16;100.00
37764;BME280;23602;51.084;7.090;2023-04-27T01:21:01;100440.34;;;4.12;100.00
37764;BME280;23602;51.084;7.090;2023-04-27T01:23:27;100444.97;;;4.10;100.00
37764;BME280;23602;51.084;7.090;2023-04-27T01:25:53;100441.16;;;4.12;100.00
37764;BME280;23602;51.084;7.090;2023-04-27T01:28:18;100439.19;;;4.14;100.00
37764;BME280;23602;51.084;7.090;2023-04-27T01:30:43;100440.16;;;4.13;100.00
37764;BME280;23602;51.084;7.090;2023-04-27T01:33:09;100440.00;;;4.15;100.00
37764;BME280;23602;51.084;7.090;2023-04-27T01:35:35;100442.78;;;4.05;100.00
37764;BME280;23602;51.084;7.090;2023-04-27T01:38:03;100448.28;;;4.04;100.00
37764;BME280;23602;51.084;7.090;2023-04-27T01:40:30;100447.22;;;3.97;100.00
37764;BME280;23602;51.084;7.090;2023-04-27T01:42:56;100451.53;;;3.90;100.00
37764;BME280;23602;51.084;7.090;2023-04-27T01:45:21;100450.84;;;3.88;100.00
37764;BME280;23602;51.084;7.090;2023-04-27T01:47:49;100457.50;;;3.83;100.00
37764;BME280;23602;51.084;7.090;2023-04-27T01:50:14;100447.50;;;3.77;100.00
37764;BME280;23602;51.084;7.090;2023-04-27T01:52:40;100451.47;;;3.73;100.00
37764;BME280;23602;51.084;7.090;2023-04-27T01:55:06;100458.91;;;3.70;100.00
37764;BME280;23602;51.084;7.090;2023-04-27T01:57:31;100457.03;;;3.62;100.00
37764;BME280;23602;51.084;7.090;2023-04-27T01:59:57;100457.53;;;3.58;100.00
37764;BME280;23602;51.084;7.090;2023-04-27T02:02:25;100465.97;;;3.53;100.00
37764;BME280;23602;51.084;7.090;2023-04-27T02:04:51;100463.94;;;3.47;100.00
37764;BME280;23602;51.084;7.090;2023-04-27T02:07:16;100475.03;;;3.43;100.00
37764;BME280;23602;51.084;7.090;2023-04-27T02:09:45;100473.34;;;3.42;100.00
37764;BME280;23602;51.084;7.090;2023-04-27T02:12:10;100476.69;;;3.44;100.00
37764;BME280;23602;51.084;7.090;2023-04-27T02:14:36;100469.66;;;3.35;100.00
37764;BME280;23602;51.084;7.090;2023-04-27T02:17:01;100477.47;;;3.36;100.00
37764;BME280;23602;51.084;7.090;2023-04-27T02:19:26;100475.44;;;3.30;100.00
37764;BME280;23602;51.084;7.090;2023-04-27T02:21:52;100474.28;;;3.33;100.00
37764;BME280;23602;51.084;7.090;2023-04-27T02:24:18;100482.56;;;3.30;100.00
37764;BME280;23602;51.084;7.090;2023-04-27T02:26:45;100476.41;;;3.29;100.00
37764;BME280;23602;51.084;7.090;2023-04-27T02:29:11;100468.25;;;3.23;100.00
37764;BME280;23602;51.084;7.090;2023-04-27T02:31:36;100470.53;;;3.17;100.00
37764;BME280;23602;51.084;7.090;2023-04-27T02:34:02;100478.50;;;3.17;100.00
37764;BME280;23602;51.084;7.090;2023-04-27T02:36:27;100471.69;;;3.15;100.00
37764;BME280;23602;51.084;7.090;2023-04-27T02:38:53;100471.97;;;3.12;100.00
37764;BME280;23602;51.084;7.090;2023-04-27T02:41:19;100476.63;;;3.10;100.00
37764;BME280;23602;51.084;7.090;2023-04-27T02:43:44;100469.78;;;3.07;100.00
37764;BME280;23602;51.084;7.090;2023-04-27T02:46:10;100479.03;;;3.03;100.00
37764;BME280;23602;51.084;7.090;2023-04-27T02:48:36;100475.41;;;3.04;100.00
37764;BME280;23602;51.084;7.090;2023-04-27T02:51:02;100470.69;;;2.98;100.00
37764;BME280;23602;51.084;7.090;2023-04-27T02:53:28;100475.03;;;2.99;100.00
37764;BME280;23602;51.084;7.090;2023-04-27T02:55:53;100471.31;;;2.92;100.00
37764;BME280;23602;51.084;7.090;2023-04-27T02:58:19;100471.31;;;2.92;100.00
37764;BME280;23602;51.084;7.090;2023-04-27T03:00:45;100467.66;;;2.93;100.00
37764;BME280;23602;51.084;7.090;2023-04-27T03:03:10;100470.19;;;2.95;100.00
37764;BME280;23602;51.084;7.090;2023-04-27T03:05:36;100463.88;;;2.96;100.00
37764;BME280;23602;51.084;7.090;2023-04-27T03:08:02;100466.16;;;2.91;100.00
37764;BME280;23602;51.084;7.090;2023-04-27T03:10:27;100458.34;;;2.89;100.00
37764;BME280;23602;51.084;7.090;2023-04-27T03:12:55;100461.00;;;2.89;100.00
37764;BME280;23602;51.084;7.090;2023-04-27T03:15:20;100460.47;;;2.86;100.00
37764;BME280;23602;51.084;7.090;2023-04-27T03:17:47;100454.84;;;2.89;100.00
37764;BME280;23602;51.084;7.090;2023-04-27T03:20:16;100461.13;;;2.88;100.00
37764;BME280;23602;51.084;7.090;2023-04-27T03:22:41;100456.00;;;2.86;100.00
37764;BME280;23602;51.084;7.090;2023-04-27T03:25:09;100456.84;;;2.87;100.00
37764;BME280;23602;51.084;7.090;2023-04-27T03:27:35;100463.56;;;2.81;100.00
37764;BME280;23602;51.084;7.090;2023-04-27T03:30:00;100467.59;;;2.85;100.00
37764;BME280;23602;51.084;7.090;2023-04-27T03:32:26;100460.09;;;2.81;100.00
37764;BME280;23602;51.084;7.090;2023-04-27T03:34:51;100470.47;;;2.74;100.00
37764;BME280;23602;51.084;7.090;2023-04-27T03:37:17;100475.63;;;2.76;100.00
37764;BME280;23602;51.084;7.090;2023-04-27T03:39:42;100465.59;;;2.70;100.00
37764;BME280;23602;51.084;7.090;2023-04-27T03:42:09;100472.75;;;2.69;100.00
37764;BME280;23602;51.084;7.090;2023-04-27T03:44:34;100469.72;;;2.64;100.00
37764;BME280;23602;51.084;7.090;2023-04-27T03:47:00;100482.16;;;2.64;100.00
37764;BME280;23602;51.084;7.090;2023-04-27T03:49:25;100478.09;;;2.60;100.00
37764;BME280;23602;51.084;7.090;2023-04-27T03:51:51;100480.38;;;2.54;100.00
37764;BME280;23602;51.084;7.090;2023-04-27T03:54:18;100471.91;;;2.51;100.00
37764;BME280;23602;51.084;7.090;2023-04-27T03:56:43;100476.75;;;2.55;100.00
37764;BME280;23602;51.084;7.090;2023-04-27T03:59:09;100472.38;;;2.46;100.00
37764;BME280;23602;51.084;7.090;2023-04-27T04:01:34;100476.16;;;2.44;100.00
37764;BME280;23602;51.084;7.090;2023-04-27T04:04:00;100482.44;;;2.43;100.00
37764;BME280;23602;51.084;7.090;2023-04-27T04:06:25;100479.78;;;2.43;100.00
37764;BME280;23602;51.084;7.090;2023-04-27T04:08:55;100489.84;;;2.39;100.00
37764;BME280;23602;51.084;7.090;2023-04-27T04:11:20;100494.91;;;2.33;100.00
37764;BME280;23602;51.084;7.090;2023-04-27T04:13:46;100496.72;;;2.32;100.00
37764;BME280;23602;51.084;7.090;2023-04-27T04:16:12;100508.63;;;2.28;100.00
37764;BME280;23602;51.084;7.090;2023-04-27T04:18:37;100509.28;;;2.30;100.00
37764;BME280;23602;51.084;7.090;2023-04-27T04:21:03;100513.47;;;2.33;100.00
37764;BME280;23602;51.084;7.090;2023-04-27T04:23:28;100507.59;;;2.39;100.00
37764;BME280;23602;51.084;7.090;2023-04-27T04:25:54;100514.41;;;2.41;100.00
37764;BME280;23602;51.084;7.090;2023-04-27T04:28:22;100516.50;;;2.38;100.00
37764;BME280;23602;51.084;7.090;2023-04-27T04:30:48;100512.91;;;2.39;100.00
37764;BME280;23602;51.084;7.090;2023-04-27T04:33:14;100518.47;;;2.36;100.00
37764;BME280;23602;51.084;7.090;2023-04-27T04:35:39;100519.63;;;2.33;100.00
37764;BME280;23602;51.084;7.090;2023-04-27T04:38:05;100527.41;;;2.35;100.00
37764;BME280;23602;51.084;7.090;2023-04-27T04:40:34;100527.69;;;2.32;100.00
37764;BME280;23602;51.084;7.090;2023-04-27T04:43:00;100520.97;;;2.37;100.00
37764;BME280;23602;51.084;7.090;2023-04-27T04:45:25;100525.16;;;2.40;100.00
37764;BME280;23602;51.084;7.090;2023-04-27T04:47:51;100529.31;;;2.42;100.00
37764;BME280;23602;51.084;7.090;2023-04-27T04:50:18;100536.44;;;2.42;100.00
37764;BME280;23602;51.084;7.090;2023-04-27T04:52:44;100539.81;;;2.44;100.00
37764;BME280;23602;51.084;7.090;2023-04-27T04:55:10;100542.47;;;2.44;100.00
37764;BME280;23602;51.084;7.090;2023-04-27T04:57:37;100536.16;;;2.45;100.00
37764;BME280;23602;51.084;7.090;2023-04-27T05:00:03;100536.59;;;2.40;100.00
37764;BME280;23602;51.084;7.090;2023-04-27T05:02:30;100539.09;;;2.42;100.00
37764;BME280;23602;51.084;7.090;2023-04-27T05:04:56;100537.97;;;2.44;100.00
37764;BME280;23602;51.084;7.090;2023-04-27T05:07:27;100536.81;;;2.47;100.00
37764;BME280;23602;51.084;7.090;2023-04-27T05:09:52;100548.16;;;2.49;100.00
37764;BME280;23602;51.084;7.090;2023-04-27T05:12:18;100544.38;;;2.51;100.00
37764;BME280;23602;51.084;7.090;2023-04-27T05:14:44;100553.41;;;2.59;100.00
37764;BME280;23602;51.084;7.090;2023-04-27T05:17:09;100550.44;;;2.62;100.00
37764;BME280;23602;51.084;7.090;2023-04-27T05:19:35;100560.31;;;2.69;100.00
37764;BME280;23602;51.084;7.090;2023-04-27T05:22:00;100555.53;;;2.73;100.00
37764;BME280;23602;51.084;7.090;2023-04-27T05:24:26;100557.72;;;2.77;100.00
37764;BME280;23602;51.084;7.090;2023-04-27T05:26:51;100573.66;;;2.77;100.00
37764;BME280;23602;51.084;7.090;2023-04-27T05:29:20;100567.38;;;2.78;100.00
37764;BME280;23602;51.084;7.090;2023-04-27T05:31:45;100567.59;;;2.85;100.00
37764;BME280;23602;51.084;7.090;2023-04-27T05:34:11;100564.22;;;2.92;100.00
37764;BME280;23602;51.084;7.090;2023-04-27T05:36:37;100569.44;;;3.02;100.00
37764;BME280;23602;51.084;7.090;2023-04-27T05:39:03;100569.00;;;3.06;100.00
37764;BME280;23602;51.084;7.090;2023-04-27T05:41:28;100571.19;;;3.11;100.00
37764;BME280;23602;51.084;7.090;2023-04-27T05:43:57;100561.88;;;3.25;100.00
37764;BME280;23602;51.084;7.090;2023-04-27T05:46:27;100560.03;;;3.43;100.00
37764;BME280;23602;51.084;7.090;2023-04-27T05:48:53;100558.13;;;3.53;100.00
37764;BME280;23602;51.084;7.090;2023-04-27T05:51:18;100549.28;;;3.70;100.00
37764;BME280;23602;51.084;7.090;2023-04-27T05:53:46;100549.34;;;3.78;100.00
37764;BME280;23602;51.084;7.090;2023-04-27T05:56:12;100531.66;;;3.95;100.00
37764;BME280;23602;51.084;7.090;2023-04-27T05:58:40;100533.06;;;4.07;100.00
37764;BME280;23602;51.084;7.090;2023-04-27T06:01:06;100531.91;;;4.09;100.00
37764;BME280;23602;51.084;7.090;2023-04-27T06:03:32;100539.25;;;4.15;100.00
37764;BME280;23602;51.084;7.090;2023-04-27T06:05:57;100533.34;;;4.29;100.00
37764;BME280;23602;51.084;7.090;2023-04-27T06:08:23;100516.78;;;4.52;100.00
37764;BME280;23602;51.084;7.090;2023-04-27T06:10:51;100517.66;;;4.60;100.00
37764;BME280;23602;51.084;7.090;2023-04-27T06:13:17;100522.63;;;4.63;100.00
37764;BME280;23602;51.084;7.090;2023-04-27T06:15:43;100532.81;;;4.68;100.00
37764;BME280;23602;51.084;7.090;2023-04-27T06:18:08;100536.81;;;4.72;100.00
37764;BME280;23602;51.084;7.090;2023-04-27T06:20:34;100538.47;;;4.73;100.00
37764;BME280;23602;51.084;7.090;2023-04-27T06:23:02;100544.97;;;4.78;100.00
37764;BME280;23602;51.084;7.090;2023-04-27T06:25:28;100542.28;;;4.78;100.00
37764;BME280;23602;51.084;7.090;2023-04-27T06:27:54;100534.69;;;4.91;100.00
37764;BME280;23602;51.084;7.090;2023-04-27T06:30:20;100525.56;;;5.10;100.00
37764;BME280;23602;51.084;7.090;2023-04-27T06:32:49;100517.91;;;5.31;100.00
37764;BME280;23602;51.084;7.090;2023-04-27T06:35:15;100516.56;;;5.35;100.00
37764;BME280;23602;51.084;7.090;2023-04-27T06:37:40;100511.56;;;5.40;100.00
37764;BME280;23602;51.084;7.090;2023-04-27T06:40:09;100514.25;;;5.48;100.00
37764;BME280;23602;51.084;7.090;2023-04-27T06:42:34;100520.88;;;5.60;100.00
37764;BME280;23602;51.084;7.090;2023-04-27T06:45:00;100515.22;;;5.63;100.00
37764;BME280;23602;51.084;7.090;2023-04-27T06:47:29;100522.88;;;5.66;100.00
37764;BME280;23602;51.084;7.090;2023-04-27T06:49:55;100512.53;;;5.71;100.00
37764;BME280;23602;51.084;7.090;2023-04-27T06:52:28;100517.50;;;5.83;100.00
37764;BME280;23602;51.084;7.090;2023-04-27T06:54:55;100516.00;;;5.96;100.00
37764;BME280;23602;51.084;7.090;2023-04-27T07:00:57;100512.13;;;6.15;100.00
37764;BME280;23602;51.084;7.090;2023-04-27T07:03:23;100500.38;;;6.32;100.00
37764;BME280;23602;51.084;7.090;2023-04-27T07:05:48;100496.16;;;6.46;100.00
37764;BME280;23602;51.084;7.090;2023-04-27T07:08:15;100510.28;;;6.54;100.00
37764;BME280;23602;51.084;7.090;2023-04-27T07:10:41;100509.38;;;6.70;100.00
37764;BME280;23602;51.084;7.090;2023-04-27T07:13:07;100505.72;;;6.93;100.00
37764;BME280;23602;51.084;7.090;2023-04-27T07:15:32;100502.50;;;7.21;100.00
37764;BME280;23602;51.084;7.090;2023-04-27T07:17:57;100501.56;;;7.51;100.00
37764;BME280;23602;51.084;7.090;2023-04-27T07:20:31;100501.94;;;7.85;100.00
37764;BME280;23602;51.084;7.090;2023-04-27T07:22:58;100499.88;;;8.16;100.00
37764;BME280;23602;51.084;7.090;2023-04-27T07:25:24;100490.69;;;8.34;100.00
37764;BME280;23602;51.084;7.090;2023-04-27T07:27:50;100490.72;;;8.69;100.00
37764;BME280;23602;51.084;7.090;2023-04-27T07:30:16;100490.22;;;9.02;100.00
37764;BME280;23602;51.084;7.090;2023-04-27T07:32:46;100480.84;;;9.12;100.00
37764;BME280;23602;51.084;7.090;2023-04-27T07:35:22;100489.19;;;9.45;100.00
37764;BME280;23602;51.084;7.090;2023-04-27T07:37:47;100491.66;;;9.74;100.00
37764;BME280;23602;51.084;7.090;2023-04-27T07:40:15;100486.13;;;9.76;100.00
37764;BME280;23602;51.084;7.090;2023-04-27T07:42:44;100494.00;;;10.11;100.00
37764;BME280;23602;51.084;7.090;2023-04-27T07:45:17;100491.97;;;10.20;100.00
37764;BME280;23602;51.084;7.090;2023-04-27T07:47:59;100488.44;;;10.13;93.54
37764;BME280;23602;51.084;7.090;2023-04-27T07:50:29;100487.97;;;10.09;94.50
37764;BME280;23602;51.084;7.090;2023-04-27T07:52:57;100493.25;;;10.65;100.00
37764;BME280;23602;51.084;7.090;2023-04-27T07:55:23;100488.88;;;10.64;88.75
37764;BME280;23602;51.084;7.090;2023-04-27T07:58:09;100486.53;;;11.15;100.00
37764;BME280;23602;51.084;7.090;2023-04-27T08:00:36;100478.28;;;11.49;80.17
37764;BME280;23602;51.084;7.090;2023-04-27T08:03:23;100477.22;;;11.63;83.25
37764;BME280;23602;51.084;7.090;2023-04-27T08:05:47;100486.28;;;12.15;88.82
37764;BME280;23602;51.084;7.090;2023-04-27T08:08:25;100479.13;;;12.53;87.03
37764;BME280;23602;51.084;7.090;2023-04-27T08:10:53;100473.06;;;12.95;79.75
37764;BME280;23602;51.084;7.090;2023-04-27T08:13:21;100472.13;;;13.46;81.67
37764;BME280;23602;51.084;7.090;2023-04-27T08:15:59;100473.09;;;13.76;83.25
37764;BME280;23602;51.084;7.090;2023-04-27T08:18:34;100473.28;;;13.99;74.06
37764;BME280;23602;51.084;7.090;2023-04-27T08:20:59;100463.63;;;13.67;62.42
37764;BME280;23602;51.084;7.090;2023-04-27T08:23:34;100467.31;;;14.15;73.03
37764;BME280;23602;51.084;7.090;2023-04-27T08:26:08;100466.06;;;14.36;65.37
37764;BME280;23602;51.084;7.090;2023-04-27T08:28:39;100469.63;;;14.30;59.76
37764;BME280;23602;51.084;7.090;2023-04-27T08:31:07;100462.06;;;14.38;64.41
37764;BME280;23602;51.084;7.090;2023-04-27T08:33:40;100459.59;;;13.76;59.83
37764;BME280;23602;51.084;7.090;2023-04-27T08:36:05;100461.44;;;13.57;54.35
37764;BME280;23602;51.084;7.090;2023-04-27T08:38:42;100455.78;;;13.83;60.96
37764;BME280;23602;51.084;7.090;2023-04-27T08:41:16;100451.91;;;13.73;55.81
37764;BME280;23602;51.084;7.090;2023-04-27T08:43:45;100451.91;;;14.16;70.32
37764;BME280;23602;51.084;7.090;2023-04-27T08:46:16;100449.88;;;14.11;61.08
37764;BME280;23602;51.084;7.090;2023-04-27T08:48:42;100447.00;;;14.06;57.31
37764;BME280;23602;51.084;7.090;2023-04-27T08:51:07;100441.00;;;13.86;55.88
37764;BME280;23602;51.084;7.090;2023-04-27T08:53:36;100446.13;;;14.12;62.12
37764;BME280;23602;51.084;7.090;2023-04-27T08:56:02;100443.06;;;14.45;59.13
37764;BME280;23602;51.084;7.090;2023-04-27T08:58:35;100455.88;;;14.49;62.44
37764;BME280;23602;51.084;7.090;2023-04-27T09:01:11;100453.66;;;14.46;57.30
37764;BME280;23602;51.084;7.090;2023-04-27T09:03:39;100452.25;;;14.74;54.38
37764;BME280;23602;51.084;7.090;2023-04-27T09:06:12;100438.94;;;15.02;51.63
37764;BME280;23602;51.084;7.090;2023-04-27T09:11:36;100438.22;;;14.65;48.23
37764;BME280;23602;51.084;7.090;2023-04-27T09:14:20;100447.47;;;15.29;49.79
37764;BME280;23602;51.084;7.090;2023-04-27T09:17:03;100439.22;;;14.52;47.64
37764;BME280;23602;51.084;7.090;2023-04-27T09:19:28;100437.13;;;14.84;49.85
37764;BME280;23602;51.084;7.090;2023-04-27T09:22:04;100441.09;;;15.23;49.27
37764;BME280;23602;51.084;7.090;2023-04-27T09:24:32;100433.84;;;15.35;51.49
37764;BME280;23602;51.084;7.090;2023-04-27T09:26:58;100439.38;;;15.40;47.25
37764;BME280;23602;51.084;7.090;2023-04-27T09:29:36;100432.53;;;15.38;43.26
37764;BME280;23602;51.084;7.090;2023-04-27T09:32:12;100433.41;;;15.50;49.67
37764;BME280;23602;51.084;7.090;2023-04-27T09:34:39;100441.38;;;14.92;47.16
37764;BME280;23602;51.084;7.090;2023-04-27T09:37:09;100434.53;;;14.89;49.90
37764;BME280;23602;51.084;7.090;2023-04-27T09:39:38;100430.63;;;15.27;51.89
37764;BME280;23602;51.084;7.090;2023-04-27T09:42:03;100433.78;;;15.53;45.94
37764;BME280;23602;51.084;7.090;2023-04-27T09:44:32;100428.78;;;15.97;48.78
37764;BME280;23602;51.084;7.090;2023-04-27T09:47:01;100427.16;;;16.47;49.13
37764;BME280;23602;51.084;7.090;2023-04-27T09:49:29;100431.13;;;16.05;43.53
37764;BME280;23602;51.084;7.090;2023-04-27T09:52:05;100422.56;;;15.61;42.10
37764;BME280;23602;51.084;7.090;2023-04-27T09:54:32;100423.75;;;15.89;45.48
37764;BME280;23602;51.084;7.090;2023-04-27T09:57:08;100417.00;;;16.42;47.08
37764;BME280;23602;51.084;7.090;2023-04-27T10:02:15;100416.44;;;16.52;41.27
37764;BME280;23602;51.084;7.090;2023-04-27T10:04:55;100415.03;;;16.78;45.14
37764;BME280;23602;51.084;7.090;2023-04-27T10:07:27;100412.81;;;16.63;43.21
37764;BME280;23602;51.084;7.090;2023-04-27T10:09:53;100409.09;;;16.81;43.30
37764;BME280;23602;51.084;7.090;2023-04-27T10:12:25;100413.91;;;16.90;44.96
37764;BME280;23602;51.084;7.090;2023-04-27T10:17:16;100408.31;;;17.47;44.89
37764;BME280;23602;51.084;7.090;2023-04-27T10:19:51;100399.44;;;17.51;39.43
37764;BME280;23602;51.084;7.090;2023-04-27T10:22:19;100399.59;;;17.12;42.60
37764;BME280;23602;51.084;7.090;2023-04-27T10:24:47;100400.03;;;16.47;40.77
37764;BME280;23602;51.084;7.090;2023-04-27T10:27:14;100395.59;;;16.29;44.62
37764;BME280;23602;51.084;7.090;2023-04-27T10:29:41;100387.41;;;16.41;46.27
37764;BME280;23602;51.084;7.090;2023-04-27T10:32:07;100392.44;;;16.21;44.72
37764;BME280;23602;51.084;7.090;2023-04-27T10:34:33;100391.84;;;16.19;44.64
37764;BME280;23602;51.084;7.090;2023-04-27T10:37:04;100387.53;;;15.95;43.76
37764;BME280;23602;51.084;7.090;2023-04-27T10:39:33;100386.31;;;15.51;46.40
37764;BME280;23602;51.084;7.090;2023-04-27T10:42:02;100384.00;;;15.25;45.90
37764;BME280;23602;51.084;7.090;2023-04-27T10:44:32;100382.00;;;15.43;48.56
37764;BME280;23602;51.084;7.090;2023-04-27T10:47:16;100381.78;;;15.45;44.69
37764;BME280;23602;51.084;7.090;2023-04-27T10:49:43;100392.28;;;15.64;46.79
37764;BME280;23602;51.084;7.090;2023-04-27T10:52:09;100385.91;;;15.94;51.33
37764;BME280;23602;51.084;7.090;2023-04-27T10:54:35;100381.56;;;15.69;48.73
37764;BME280;23602;51.084;7.090;2023-04-27T10:57:04;100382.25;;;15.76;50.50
37764;BME280;23602;51.084;7.090;2023-04-27T10:59:30;100374.56;;;15.97;50.86
37764;BME280;23602;51.084;7.090;2023-04-27T11:01:56;100374.75;;;15.78;46.77
37764;BME280;23602;51.084;7.090;2023-04-27T11:04:33;100375.69;;;15.61;45.47
37764;BME280;23602;51.084;7.090;2023-04-27T11:06:59;100368.72;;;15.76;51.72
37764;BME280;23602;51.084;7.090;2023-04-27T11:09:25;100368.75;;;15.53;49.09
37764;BME280;23602;51.084;7.090;2023-04-27T11:11:51;100368.03;;;15.46;48.92
37764;BME280;23602;51.084;7.090;2023-04-27T11:14:20;100364.38;;;15.64;49.27
37764;BME280;23602;51.084;7.090;2023-04-27T11:16:46;100369.31;;;15.67;49.63
37764;BME280;23602;51.084;7.090;2023-04-27T11:19:12;100370.31;;;16.01;49.18
37764;BME280;23602;51.084;7.090;2023-04-27T11:21:37;100360.00;;;16.26;50.59
37764;BME280;23602;51.084;7.090;2023-04-27T11:24:06;100362.03;;;16.07;47.18
37764;BME280;23602;51.084;7.090;2023-04-27T11:26:32;100359.97;;;15.98;48.36
37764;BME280;23602;51.084;7.090;2023-04-27T11:31:26;100352.13;;;16.13;47.75
37764;BME280;23602;51.084;7.090;2023-04-27T11:33:52;100349.00;;;15.93;48.26
37764;BME280;23602;51.084;7.090;2023-04-27T11:36:18;100350.97;;;16.09;52.93
37764;BME280;23602;51.084;7.090;2023-04-27T11:38:43;100352.56;;;15.93;47.09
37764;BME280;23602;51.084;7.090;2023-04-27T11:41:09;100348.81;;;15.82;48.91
37764;BME280;23602;51.084;7.090;2023-04-27T11:43:42;100355.44;;;16.15;52.41
37764;BME280;23602;51.084;7.090;2023-04-27T11:46:10;100350.16;;;16.08;47.04
37764;BME280;23602;51.084;7.090;2023-04-27T11:48:36;100344.06;;;16.01;45.67
37764;BME280;23602;51.084;7.090;2023-04-27T11:51:02;100345.47;;;15.92;46.28
37764;BME280;23602;51.084;7.090;2023-04-27T11:53:27;100329.09;;;15.87;48.40
37764;BME280;23602;51.084;7.090;2023-04-27T11:55:53;100326.47;;;16.04;51.36
37764;BME280;23602;51.084;7.090;2023-04-27T11:58:19;100328.59;;;16.30;52.18
37764;BME280;23602;51.084;7.090;2023-04-27T12:00:45;100326.09;;;16.12;47.10
37764;BME280;23602;51.084;7.090;2023-04-27T12:03:11;100324.16;;;15.96;49.25
37764;BME280;23602;51.084;7.090;2023-04-27T12:05:49;100329.09;;;15.99;48.01
37764;BME280;23602;51.084;7.090;2023-04-27T12:08:17;100323.25;;;16.18;50.57
37764;BME280;23602;51.084;7.090;2023-04-27T12:10:43;100325.56;;;16.26;49.34
37764;BME280;23602;51.084;7.090;2023-04-27T12:13:11;100322.84;;;15.87;49.97
37764;BME280;23602;51.084;7.090;2023-04-27T12:15:38;100327.38;;;15.81;46.24
37764;BME280;23602;51.084;7.090;2023-04-27T12:18:04;100325.28;;;16.00;51.33
37764;BME280;23602;51.084;7.090;2023-04-27T12:20:30;100320.34;;;15.97;49.34
37764;BME280;23602;51.084;7.090;2023-04-27T12:22:55;100317.16;;;16.11;49.64
37764;BME280;23602;51.084;7.090;2023-04-27T12:25:21;100314.66;;;16.38;54.25
37764;BME280;23602;51.084;7.090;2023-04-27T12:27:46;100305.66;;;16.49;53.83
37764;BME280;23602;51.084;7.090;2023-04-27T12:30:13;100297.94;;;16.58;52.55
37764;BME280;23602;51.084;7.090;2023-04-27T12:32:39;100304.06;;;16.65;51.31
37764;BME280;23602;51.084;7.090;2023-04-27T12:35:05;100294.03;;;16.82;51.90
37764;BME280;23602;51.084;7.090;2023-04-27T12:37:30;100298.78;;;16.91;50.34
37764;BME280;23602;51.084;7.090;2023-04-27T12:39:56;100296.06;;;16.58;48.50
37764;BME280;23602;51.084;7.090;2023-04-27T12:42:22;100300.53;;;16.64;49.58
37764;BME280;23602;51.084;7.090;2023-04-27T12:44:48;100297.91;;;16.69;50.78
37764;BME280;23602;51.084;7.090;2023-04-27T12:47:13;100298.72;;;16.70;49.82
37764;BME280;23602;51.084;7.090;2023-04-27T12:49:39;100296.13;;;16.47;44.29
37764;BME280;23602;51.084;7.090;2023-04-27T12:52:05;100299.03;;;16.00;44.90
37764;BME280;23602;51.084;7.090;2023-04-27T12:54:34;100298.91;;;16.07;51.13
37764;BME280;23602;51.084;7.090;2023-04-27T12:57:01;100301.78;;;15.89;47.24
37764;BME280;23602;51.084;7.090;2023-04-27T12:59:31;100297.16;;;15.89;46.99
37764;BME280;23602;51.084;7.090;2023-04-27T13:01:56;100302.66;;;16.06;50.08
37764;BME280;23602;51.084;7.090;2023-04-27T13:04:22;100295.28;;;16.18;48.60